Time;durP1;ratioP1;P1;durP2;ratioP2;P2;SDS_P1;SDS_P2;PMS_P1;PMS_P2;Temp;Humidity;BMP_temperature;BMP_pressure;BME280_temperature;BME280_humidity;BME280_pressure;Samples;Min_cycle;Max_cycle;Signal;HPM_P1;HPM_P2
2022/09/17 00:02:01;;;;;;;17.35;3.25;;;11.20;99.90;;;;;;5073906;28;20474;-48
2022/09/17 00:04:27;;;;;;;15.95;3.13;;;11.20;99.90;;;;;;5062547;28;20090;-47
2022/09/17 00:06:53;;;;;;;21.60;3.53;;;11.20;99.90;;;;;;5062652;28;20131;-49
2022/09/17 00:09:18;;;;;;;17.55;2.90;;;11.20;99.90;;;;;;5064443;28;20479;-49
2022/09/17 00:11:44;;;;;;;20.70;3.30;;;11.10;99.90;;;;;;5061813;28;20131;-53
2022/09/17 00:14:15;;;;;;;14.30;3.03;;;11.00;99.90;;;;;;5065952;28;20060;-53
2022/09/17 00:16:45;;;;;;;13.95;3.30;;;11.00;99.90;;;;;;5061186;28;20044;-49
2022/09/17 00:19:20;;;;;;;13.15;3.10;;;10.80;99.90;;;;;;5060815;28;20093;-50
2022/09/17 00:21:46;;;;;;;15.30;3.13;;;10.80;99.90;;;;;;5076918;28;20040;-50
2022/09/17 00:24:13;;;;;;;15.23;3.15;;;10.80;99.90;;;;;;5075773;28;20091;-49
2022/09/17 00:26:39;;;;;;;17.33;3.58;;;10.70;99.90;;;;;;5072523;28;20051;-48
2022/09/17 00:29:05;;;;;;;15.40;2.85;;;10.70;99.90;;;;;;5071238;28;20048;-47
2022/09/17 00:31:31;;;;;;;23.23;4.28;;;10.60;99.90;;;;;;5069679;28;20063;-50
2022/09/17 00:34:01;;;;;;;19.38;3.55;;;10.60;99.90;;;;;;5056942;28;20103;-47
2022/09/17 00:36:27;;;;;;;14.57;2.80;;;10.60;99.90;;;;;;5075523;28;20527;-49
2022/09/17 00:38:55;;;;;;;13.30;3.65;;;10.60;99.90;;;;;;5056510;28;20056;-47
2022/09/17 00:41:23;;;;;;;17.67;3.97;;;10.60;99.90;;;;;;5060047;28;20051;-48
2022/09/17 00:43:56;;;;;;;15.50;3.00;;;10.70;99.90;;;;;;5076557;28;20045;-48
2022/09/17 00:46:30;;;;;;;21.35;3.67;;;10.70;99.90;;;;;;5071866;28;20405;-49
2022/09/17 00:48:59;;;;;;;18.63;3.50;;;10.80;99.90;;;;;;5050484;28;20652;-47
2022/09/17 00:51:36;;;;;;;18.75;3.28;;;10.80;99.90;;;;;;5072581;28;20048;-48
2022/09/17 00:54:04;;;;;;;16.75;3.75;;;10.80;99.90;;;;;;5074788;28;20410;-47
2022/09/17 00:56:32;;;;;;;14.80;3.05;;;10.80;99.90;;;;;;5080345;28;20052;-49
2022/09/17 00:59:01;;;;;;;17.80;3.53;;;10.80;99.90;;;;;;5078134;28;20055;-49
2022/09/17 01:01:30;;;;;;;13.75;2.85;;;10.80;99.90;;;;;;5080319;28;20118;-47
2022/09/17 01:03:56;;;;;;;17.55;3.95;;;10.80;99.90;;;;;;5080491;28;20052;-48
2022/09/17 01:06:22;;;;;;;15.45;2.95;;;10.80;99.90;;;;;;5050288;28;20521;-47
2022/09/17 01:08:56;;;;;;;11.68;2.40;;;10.90;99.90;;;;;;5073347;28;20599;-47
2022/09/17 01:11:28;;;;;;;10.57;2.53;;;10.90;99.90;;;;;;5079771;28;20086;-47
2022/09/17 01:14:21;;;;;;;9.20;2.03;;;11.00;99.90;;;;;;5062091;28;20400;-48
2022/09/17 01:16:59;;;;;;;14.90;3.38;;;11.00;99.90;;;;;;5061391;28;20080;-48
2022/09/17 01:19:39;;;;;;;11.90;2.50;;;11.00;99.90;;;;;;5072592;28;20044;-49
2022/09/17 01:22:13;;;;;;;11.35;2.42;;;10.90;99.90;;;;;;5052916;28;20060;-49
2022/09/17 01:24:44;;;;;;;16.08;3.03;;;10.90;99.90;;;;;;5056349;28;20080;-50
2022/09/17 01:27:44;;;;;;;13.38;2.30;;;10.90;99.90;;;;;;5060940;28;20102;-53
2022/09/17 01:30:13;;;;;;;11.05;2.00;;;10.80;99.90;;;;;;5059425;28;20048;-48
2022/09/17 01:32:58;;;;;;;8.52;2.10;;;10.80;99.90;;;;;;5056088;28;20411;-50
2022/09/17 01:35:37;;;;;;;15.65;2.50;;;10.80;99.90;;;;;;5050754;28;20128;-48
2022/09/17 01:38:21;;;;;;;15.38;2.72;;;10.70;99.90;;;;;;5061999;28;20398;-48
2022/09/17 01:40:59;;;;;;;9.43;1.98;;;10.70;99.90;;;;;;5058262;28;20044;-50
2022/09/17 01:43:40;;;;;;;13.68;2.35;;;10.70;99.90;;;;;;5044739;28;20428;-47
2022/09/17 01:46:13;;;;;;;10.40;1.90;;;10.70;99.90;;;;;;5056087;28;20071;-48
2022/09/17 01:48:44;;;;;;;;;;;10.70;99.90;;;;;;5056556;28;20171;-48
2022/09/17 01:51:21;;;;;;;10.02;2.72;;;10.60;99.90;;;;;;5056079;28;20298;-47
2022/09/17 01:54:04;;;;;;;9.93;2.08;;;10.50;99.90;;;;;;5038184;28;20542;-48
2022/09/17 01:56:38;;;;;;;17.25;2.63;;;10.50;99.90;;;;;;5051546;28;20044;-47
2022/09/17 01:59:17;;;;;;;16.75;2.75;;;10.50;99.90;;;;;;5063126;28;20053;-47
2022/09/17 02:01:46;;;;;;;11.80;2.53;;;10.40;99.90;;;;;;5038387;28;20064;-47
2022/09/17 02:04:37;;;;;;;13.57;2.92;;;10.40;99.90;;;;;;5040561;28;20053;-49
2022/09/17 02:07:09;;;;;;;17.95;3.40;;;10.40;99.90;;;;;;4951866;28;20449;-47
2022/09/17 02:09:43;;;;;;;15.93;2.80;;;10.40;99.90;;;;;;4946231;28;20082;-48
2022/09/17 02:12:16;;;;;;;14.07;2.92;;;10.40;99.90;;;;;;4949394;28;20089;-47
2022/09/17 02:14:49;;;;;;;13.85;2.63;;;10.40;99.90;;;;;;4952356;28;20137;-48
2022/09/17 02:17:48;;;;;;;16.30;3.50;;;10.40;99.90;;;;;;4955747;28;20044;-49
2022/09/17 02:20:15;;;;;;;10.35;2.50;;;10.40;99.90;;;;;;4912926;29;20555;-49
2022/09/17 02:22:51;;;;;;;15.90;2.50;;;10.50;99.90;;;;;;4927183;29;20421;-47
2022/09/17 02:25:24;;;;;;;10.10;2.67;;;10.50;99.90;;;;;;4942646;29;20593;-48
2022/09/17 02:28:05;;;;;;;11.80;2.47;;;10.60;99.90;;;;;;4941848;28;20058;-47
2022/09/17 02:30:31;;;;;;;18.42;3.03;;;10.50;99.90;;;;;;4937125;28;20055;-49
2022/09/17 02:32:57;;;;;;;15.00;2.67;;;10.60;99.90;;;;;;4941681;28;20051;-48
2022/09/17 02:35:22;;;;;;;10.88;2.58;;;10.50;99.90;;;;;;4926980;29;20503;-48
2022/09/17 02:37:48;;;;;;;18.50;2.47;;;10.50;99.90;;;;;;4942564;29;20082;-49
2022/09/17 02:40:16;;;;;;;16.73;2.65;;;10.50;99.90;;;;;;4943442;28;20266;-51
2022/09/17 02:43:00;;;;;;;14.65;2.67;;;10.40;99.90;;;;;;4937179;28;20102;-50
2022/09/17 02:45:28;;;;;;;10.10;2.20;;;10.30;99.90;;;;;;4950559;28;20055;-48
2022/09/17 02:48:12;;;;;;;7.70;2.15;;;10.20;99.90;;;;;;4948168;28;20066;-48
2022/09/17 02:50:53;;;;;;;10.85;2.67;;;10.20;99.90;;;;;;4953836;28;20107;-49
2022/09/17 02:53:41;;;;;;;14.60;3.22;;;10.20;99.90;;;;;;4942276;28;20059;-47
2022/09/17 02:56:09;;;;;;;15.60;2.70;;;10.30;99.90;;;;;;4981949;28;20465;-48
2022/09/17 02:59:00;;;;;;;15.48;2.97;;;10.30;99.90;;;;;;5070102;28;20358;-49
2022/09/17 03:01:34;;;;;;;10.73;2.20;;;10.40;99.90;;;;;;5078324;28;20722;-47
2022/09/17 03:04:02;;;;;;;9.43;2.28;;;10.40;99.90;;;;;;5055483;28;20064;-48
2022/09/17 03:06:33;;;;;;;22.75;3.28;;;10.50;99.90;;;;;;5072554;28;20040;-48
2022/09/17 03:08:58;;;;;;;12.25;2.50;;;10.50;99.90;;;;;;5059509;28;20509;-48
2022/09/17 03:11:24;;;;;;;11.95;2.42;;;10.60;99.90;;;;;;5074162;28;20170;-48
2022/09/17 03:13:50;;;;;;;13.30;3.10;;;10.50;99.90;;;;;;5068128;28;20466;-50
2022/09/17 03:16:16;;;;;;;14.02;2.47;;;10.50;99.90;;;;;;5074182;28;20141;-49
2022/09/17 03:18:42;;;;;;;17.58;3.00;;;10.50;99.90;;;;;;5075115;28;20044;-47
2022/09/17 03:21:08;;;;;;;17.92;2.75;;;10.40;99.90;;;;;;5072257;28;20531;-47
2022/09/17 03:23:34;;;;;;;13.07;2.65;;;10.40;99.90;;;;;;5079147;28;20048;-50
2022/09/17 03:25:59;;;;;;;17.35;2.70;;;10.40;99.90;;;;;;5063284;28;20052;-50
2022/09/17 03:28:25;;;;;;;9.30;2.17;;;10.50;99.90;;;;;;5064098;28;20557;-48
2022/09/17 03:30:52;;;;;;;11.02;2.50;;;10.50;99.90;;;;;;5082722;28;20060;-47
2022/09/17 03:33:18;;;;;;;13.38;2.97;;;10.50;99.90;;;;;;5063964;28;20056;-47
2022/09/17 03:35:44;;;;;;;18.65;2.80;;;10.50;99.90;;;;;;5082048;28;20051;-50
2022/09/17 03:38:11;;;;;;;11.30;2.10;;;10.40;99.90;;;;;;5081828;28;20759;-49
2022/09/17 03:40:37;;;;;;;16.10;2.38;;;10.40;99.90;;;;;;5082986;28;20067;-49
2022/09/17 03:43:04;;;;;;;9.48;1.95;;;10.30;99.90;;;;;;5082689;28;20069;-48
2022/09/17 03:45:31;;;;;;;11.70;2.20;;;10.30;99.90;;;;;;5082765;28;20110;-48
2022/09/17 03:47:56;;;;;;;12.38;2.70;;;10.30;99.90;;;;;;5070715;28;20131;-47
2022/09/17 03:50:22;;;;;;;8.57;2.10;;;10.30;99.90;;;;;;5081844;28;20052;-49
2022/09/17 03:52:48;;;;;;;11.50;2.05;;;10.30;99.90;;;;;;5081917;28;20075;-48
2022/09/17 03:55:15;;;;;;;12.55;2.20;;;10.30;99.90;;;;;;5080498;28;20083;-50
2022/09/17 03:57:40;;;;;;;13.88;2.67;;;10.40;99.90;;;;;;5070552;28;20094;-49
2022/09/17 04:00:07;;;;;;;11.63;1.88;;;10.40;99.90;;;;;;5047115;28;20049;-47
2022/09/17 04:02:34;;;;;;;10.80;2.10;;;10.40;99.90;;;;;;5080518;28;20059;-48
2022/09/17 04:05:00;;;;;;;11.00;2.40;;;10.30;99.90;;;;;;5074467;28;20360;-47
2022/09/17 04:07:26;;;;;;;10.65;2.40;;;10.20;99.90;;;;;;5067284;28;20596;-48
2022/09/17 04:09:51;;;;;;;12.02;2.17;;;10.10;99.90;;;;;;5080783;28;20041;-49
2022/09/17 04:12:17;;;;;;;14.82;2.50;;;10.10;99.90;;;;;;5051327;28;20109;-48
2022/09/17 04:14:43;;;;;;;10.38;2.20;;;10.00;99.90;;;;;;5080505;28;20040;-48
2022/09/17 04:17:08;;;;;;;12.32;2.10;;;10.00;99.90;;;;;;5060698;28;20055;-47
2022/09/17 04:19:34;;;;;;;14.13;2.65;;;10.00;99.90;;;;;;5044106;28;20064;-48
2022/09/17 04:22:00;;;;;;;10.00;2.10;;;10.10;99.90;;;;;;5077253;28;20048;-48
2022/09/17 04:24:25;;;;;;;12.32;2.33;;;10.10;99.90;;;;;;5062690;28;20059;-48
2022/09/17 04:26:51;;;;;;;14.32;2.35;;;10.10;99.90;;;;;;5080972;28;20052;-47
2022/09/17 04:29:17;;;;;;;15.13;2.15;;;10.00;99.90;;;;;;5076204;28;20041;-48
2022/09/17 04:31:42;;;;;;;17.52;3.25;;;10.00;99.90;;;;;;5081240;28;20083;-47
2022/09/17 04:34:08;;;;;;;13.55;2.75;;;9.90;99.90;;;;;;5071185;28;20049;-47
2022/09/17 04:36:34;;;;;;;16.42;2.65;;;10.00;99.90;;;;;;5068455;28;20040;-48
2022/09/17 04:38:59;;;;;;;16.02;3.20;;;9.90;99.90;;;;;;5076694;28;20095;-48
2022/09/17 04:41:25;;;;;;;13.65;2.28;;;9.80;99.90;;;;;;5070863;28;20411;-47
2022/09/17 04:43:51;;;;;;;11.85;2.05;;;9.80;99.90;;;;;;5073245;28;20083;-47
2022/09/17 04:46:16;;;;;;;12.32;3.05;;;9.80;99.90;;;;;;5072992;28;20044;-47
2022/09/17 04:48:42;;;;;;;11.98;2.42;;;9.70;99.90;;;;;;5059383;28;20059;-49
2022/09/17 04:51:08;;;;;;;11.13;2.17;;;9.60;99.90;;;;;;5081467;28;20052;-48
2022/09/17 04:53:34;;;;;;;10.43;2.28;;;9.50;99.90;;;;;;5043674;28;20075;-49
2022/09/17 04:56:00;;;;;;;16.05;2.35;;;9.50;99.90;;;;;;5051401;28;20423;-49
2022/09/17 04:58:25;;;;;;;11.23;2.83;;;9.40;99.90;;;;;;5058605;28;20092;-51
2022/09/17 05:00:51;;;;;;;8.50;1.85;;;9.40;99.90;;;;;;5047071;28;20087;-50
2022/09/17 05:03:17;;;;;;;11.40;2.63;;;9.40;99.90;;;;;;5048642;28;20383;-47
2022/09/17 05:05:42;;;;;;;11.65;2.25;;;9.30;99.90;;;;;;5057871;28;20048;-51
2022/09/17 05:08:08;;;;;;;16.63;2.78;;;9.30;99.90;;;;;;5052729;28;20073;-48
2022/09/17 05:10:35;;;;;;;13.07;1.95;;;9.30;99.90;;;;;;5059247;28;20060;-48
2022/09/17 05:13:01;;;;;;;19.67;3.58;;;9.30;99.90;;;;;;5052726;28;20098;-51
2022/09/17 05:15:27;;;;;;;14.43;2.90;;;9.20;99.90;;;;;;5040171;28;20057;-50
2022/09/17 05:17:53;;;;;;;16.50;2.88;;;9.30;99.90;;;;;;5062553;28;20052;-47
2022/09/17 05:20:19;;;;;;;17.83;2.53;;;9.30;99.90;;;;;;5053086;28;20037;-52
2022/09/17 05:22:46;;;;;;;15.18;2.78;;;9.30;99.90;;;;;;5048954;28;20075;-48
2022/09/17 05:25:14;;;;;;;18.27;3.50;;;9.40;99.90;;;;;;5049074;28;20072;-47
2022/09/17 05:27:40;;;;;;;13.68;2.83;;;9.50;99.90;;;;;;5063297;28;20113;-50
2022/09/17 05:30:07;;;;;;;17.92;3.13;;;9.50;99.90;;;;;;5055136;28;20059;-47
2022/09/17 05:32:34;;;;;;;12.32;2.33;;;9.60;99.90;;;;;;5060063;28;20139;-47
2022/09/17 05:35:00;;;;;;;10.90;2.00;;;9.70;99.90;;;;;;5054736;28;20044;-48
2022/09/17 05:37:26;;;;;;;12.60;1.90;;;9.70;99.90;;;;;;5061889;28;20483;-47
2022/09/17 05:39:51;;;;;;;12.20;2.15;;;9.70;99.90;;;;;;5051836;28;20159;-47
2022/09/17 05:42:17;;;;;;;16.10;3.95;;;9.70;99.90;;;;;;5062174;28;20072;-47
2022/09/17 05:44:43;;;;;;;12.23;2.25;;;9.70;99.90;;;;;;5056257;28;20098;-49
2022/09/17 05:47:09;;;;;;;13.77;2.33;;;9.70;99.90;;;;;;5054113;28;20422;-49
2022/09/17 05:49:34;;;;;;;17.55;3.03;;;9.70;99.90;;;;;;5051254;28;20063;-48
2022/09/17 05:52:02;;;;;;;15.45;2.70;;;9.70;99.90;;;;;;5055045;28;20051;-47
2022/09/17 05:54:31;;;;;;;16.08;2.63;;;9.80;99.90;;;;;;5046859;28;20064;-48
2022/09/17 05:56:57;;;;;;;14.63;2.45;;;9.80;99.90;;;;;;5051858;28;20053;-47
2022/09/17 05:59:22;;;;;;;16.52;3.10;;;9.90;99.90;;;;;;5049128;28;20048;-48
2022/09/17 06:01:49;;;;;;;10.95;3.15;;;10.00;99.90;;;;;;5062584;28;20072;-48
2022/09/17 06:04:16;;;;;;;16.05;2.60;;;10.10;99.90;;;;;;5057181;28;20529;-46
2022/09/17 06:06:42;;;;;;;17.17;3.03;;;10.10;99.90;;;;;;5062735;28;20511;-47
2022/09/17 06:09:09;;;;;;;9.38;2.25;;;10.10;99.90;;;;;;5032623;28;20143;-49
2022/09/17 06:11:36;;;;;;;10.85;2.58;;;10.10;99.90;;;;;;5039719;28;20099;-48
2022/09/17 06:14:08;;;;;;;12.55;2.88;;;10.10;99.90;;;;;;5054921;28;20087;-50
2022/09/17 06:16:34;;;;;;;14.18;2.50;;;10.10;99.90;;;;;;5055963;28;20041;-49
2022/09/17 06:18:59;;;;;;;12.43;2.00;;;10.10;99.90;;;;;;5030170;28;20056;-46
2022/09/17 06:21:25;;;;;;;10.15;2.92;;;10.50;99.90;;;;;;5037405;28;20048;-50
2022/09/17 06:23:56;;;;;;;8.43;1.55;;;11.40;99.90;;;;;;5053830;28;20094;-48
2022/09/17 06:26:22;;;;;;;8.57;2.00;;;11.60;99.90;;;;;;5066393;28;20106;-48
2022/09/17 06:28:47;;;;;;;6.75;1.70;;;11.70;99.90;;;;;;5052751;28;20150;-49
2022/09/17 06:31:13;;;;;;;12.15;1.80;;;11.90;99.90;;;;;;5045688;28;20048;-49
2022/09/17 06:33:39;;;;;;;13.65;2.25;;;11.80;99.90;;;;;;5053016;28;20049;-50
2022/09/17 06:36:09;;;;;;;7.78;1.65;;;11.40;99.90;;;;;;5044982;28;20049;-48
2022/09/17 06:38:35;;;;;;;11.48;1.73;;;11.10;99.90;;;;;;5056705;28;20091;-49
2022/09/17 06:41:02;;;;;;;7.22;1.40;;;10.80;99.90;;;;;;5041355;28;20123;-48
2022/09/17 06:43:28;;;;;;;7.82;1.63;;;10.70;99.90;;;;;;5052048;28;20049;-46
2022/09/17 06:45:59;;;;;;;8.40;1.90;;;10.60;99.90;;;;;;5063650;28;20589;-48
2022/09/17 06:48:29;;;;;;;10.05;1.48;;;11.10;99.90;;;;;;5051613;28;20055;-46
2022/09/17 06:51:02;;;;;;;14.27;2.45;;;11.70;99.90;;;;;;5037405;28;20156;-48
2022/09/17 06:53:29;;;;;;;8.10;1.88;;;12.40;99.90;;;;;;5062533;28;20060;-46
2022/09/17 06:55:59;;;;;;;10.90;3.33;;;12.90;99.90;;;;;;5050578;28;20049;-47
2022/09/17 06:58:25;;;;;;;7.13;1.30;;;13.40;99.90;;;;;;5053420;28;20055;-49
2022/09/17 07:00:51;;;;;;;9.00;1.67;;;13.60;99.90;;;;;;5062263;28;20557;-48
2022/09/17 07:03:18;;;;;;;8.07;1.30;;;13.90;99.90;;;;;;5054203;28;20059;-48
2022/09/17 07:05:44;;;;;;;10.32;2.00;;;14.20;99.90;;;;;;5060683;28;20056;-47
2022/09/17 07:08:09;;;;;;;7.32;1.73;;;14.40;99.90;;;;;;5059022;28;20443;-47
2022/09/17 07:10:36;;;;;;;10.63;1.88;;;14.00;99.90;;;;;;5050919;28;20041;-47
2022/09/17 07:13:03;;;;;;;7.15;1.58;;;13.60;99.90;;;;;;5040854;28;20044;-47
2022/09/17 07:15:29;;;;;;;7.22;1.70;;;13.30;99.90;;;;;;5056687;28;20563;-46
2022/09/17 07:17:55;;;;;;;7.22;1.33;;;13.10;99.90;;;;;;5049208;28;20346;-47
2022/09/17 07:20:20;;;;;;;7.90;1.27;;;12.90;99.90;;;;;;5058000;28;20060;-46
2022/09/17 07:22:56;;;;;;;6.55;1.30;;;12.80;99.90;;;;;;5053672;28;20140;-51
2022/09/17 07:25:22;;;;;;;5.65;1.20;;;12.80;99.90;;;;;;5052331;28;20056;-46
2022/09/17 07:27:47;;;;;;;7.28;1.00;;;12.70;99.90;;;;;;5056727;28;20045;-47
2022/09/17 07:30:14;;;;;;;5.30;1.20;;;12.40;99.90;;;;;;5054792;28;20372;-46
2022/09/17 07:32:40;;;;;;;6.20;1.05;;;12.30;99.90;;;;;;5057707;28;20126;-48
2022/09/17 07:35:06;;;;;;;7.07;1.45;;;12.20;99.90;;;;;;5056061;28;20147;-47
2022/09/17 07:37:32;;;;;;;3.28;0.90;;;12.00;99.90;;;;;;5058858;28;20044;-47
2022/09/17 07:39:58;;;;;;;7.65;1.10;;;11.90;99.90;;;;;;5055882;28;20403;-47
2022/09/17 07:42:24;;;;;;;3.92;0.80;;;11.70;99.90;;;;;;5059370;28;20495;-49
2022/09/17 07:44:49;;;;;;;4.25;0.95;;;11.60;99.90;;;;;;5053588;28;20790;-48
2022/09/17 07:47:18;;;;;;;4.03;0.80;;;11.60;99.90;;;;;;5051571;28;20042;-49
2022/09/17 07:49:44;;;;;;;5.70;0.95;;;11.60;99.90;;;;;;5057668;28;20191;-47
2022/09/17 07:52:10;;;;;;;4.70;1.67;;;11.90;99.90;;;;;;5052377;28;20452;-49
2022/09/17 07:54:36;;;;;;;3.92;1.05;;;12.20;99.90;;;;;;5053043;28;20052;-49
2022/09/17 07:57:02;;;;;;;6.13;1.42;;;12.30;99.90;;;;;;5061515;28;20044;-46
2022/09/17 07:59:28;;;;;;;5.70;1.13;;;12.40;99.90;;;;;;5054670;28;20473;-47
2022/09/17 08:01:54;;;;;;;5.50;1.70;;;12.60;99.90;;;;;;5054932;28;20056;-49
2022/09/17 08:04:20;;;;;;;8.45;1.67;;;12.60;99.90;;;;;;5050929;28;20090;-47
2022/09/17 08:06:48;;;;;;;8.13;1.35;;;12.40;99.90;;;;;;5053633;28;20085;-47
2022/09/17 08:09:15;;;;;;;8.35;1.42;;;12.30;99.90;;;;;;5058058;28;20071;-47
2022/09/17 08:11:42;;;;;;;7.20;1.25;;;12.10;99.90;;;;;;5047787;28;20059;-48
2022/09/17 08:14:13;;;;;;;9.40;1.40;;;12.30;99.90;;;;;;5052468;28;20080;-51
2022/09/17 08:16:39;;;;;;;8.27;1.45;;;12.60;99.90;;;;;;5060471;28;20562;-47
2022/09/17 08:19:05;;;;;;;10.35;1.85;;;13.10;99.90;;;;;;5057148;28;20403;-49
2022/09/17 08:21:31;;;;;;;8.18;1.55;;;13.40;99.90;;;;;;5046658;28;20095;-48
2022/09/17 08:23:57;;;;;;;4.53;1.38;;;13.40;99.90;;;;;;5052586;28;20048;-48
2022/09/17 08:26:24;;;;;;;5.07;1.08;;;13.20;99.90;;;;;;5054142;28;20147;-46
2022/09/17 08:28:53;;;;;;;5.38;1.00;;;13.00;99.90;;;;;;5042612;28;20052;-47
2022/09/17 08:31:20;;;;;;;5.78;1.00;;;13.00;99.90;;;;;;5040998;28;20045;-48
2022/09/17 08:33:46;;;;;;;3.80;0.70;;;13.00;99.90;;;;;;5053367;28;20384;-47
2022/09/17 08:36:14;;;;;;;5.47;1.05;;;12.90;99.90;;;;;;5048151;28;20048;-48
2022/09/17 08:38:40;;;;;;;3.92;0.82;;;12.90;99.90;;;;;;5039995;28;20061;-46
2022/09/17 08:41:09;;;;;;;2.83;1.15;;;12.90;99.90;;;;;;5040342;28;20063;-47
2022/09/17 08:43:39;;;;;;;3.72;1.02;;;12.90;99.90;;;;;;5057868;28;20052;-47
2022/09/17 08:46:09;;;;;;;7.85;1.52;;;13.10;99.90;;;;;;5038325;28;20710;-51
2022/09/17 08:48:52;;;;;;;6.47;1.40;;;13.50;99.90;;;;;;5037161;28;20581;-48
2022/09/17 08:51:32;;;;;;;;;;;13.70;99.90;;;;;;5059424;28;20067;-47
2022/09/17 08:54:21;;;;;;;7.47;1.50;;;13.80;99.90;;;;;;5051006;28;19931;-51
2022/09/17 08:57:00;;;;;;;9.77;1.55;;;13.60;99.90;;;;;;5053242;28;20555;-47
2022/09/17 08:59:37;;;;;;;7.40;1.40;;;13.40;99.90;;;;;;5038403;28;20059;-49
2022/09/17 09:02:23;;;;;;;8.77;2.50;;;13.20;99.90;;;;;;5021843;28;20044;-53
2022/09/17 09:05:11;;;;;;;10.07;1.70;;;13.40;99.90;;;;;;5041234;28;20578;-51
2022/09/17 09:07:54;;;;;;;9.57;1.88;;;13.70;99.90;;;;;;5063035;28;20123;-49
2022/09/17 09:10:24;;;;;;;10.23;2.60;;;14.10;99.90;;;;;;5058456;28;20060;-48
2022/09/17 09:12:55;;;;;;;9.02;2.05;;;14.40;99.90;;;;;;5064118;28;20143;-49
2022/09/17 09:15:41;;;;;;;8.10;1.80;;;14.70;99.90;;;;;;5063943;28;20120;-49
2022/09/17 09:18:19;;;;;;;8.57;1.88;;;14.80;99.90;;;;;;5064616;28;20541;-48
2022/09/17 09:21:29;;;;;;;10.65;1.90;;;15.00;99.90;;;;;;5052887;28;20087;-47
2022/09/17 09:24:01;;;;;;;11.30;2.00;;;14.80;99.90;;;;;;4968477;28;20526;-47
2022/09/17 09:26:39;;;;;;;12.52;2.47;;;14.70;99.90;;;;;;4975432;28;20057;-48
2022/09/17 09:29:13;;;;;;;12.55;1.85;;;14.70;99.90;;;;;;4961807;28;20101;-49
2022/09/17 09:32:03;;;;;;;7.28;1.90;;;14.60;99.90;;;;;;4968048;28;20142;-48
2022/09/17 09:34:33;;;;;;;7.93;1.60;;;14.80;99.90;;;;;;4961696;28;20138;-47
2022/09/17 09:37:20;;;;;;;7.10;2.03;;;15.10;99.90;;;;;;4974568;28;20427;-47
2022/09/17 09:39:49;;;;;;;7.43;1.65;;;15.60;99.90;;;;;;4980952;28;20081;-48
2022/09/17 09:42:37;;;;;;;5.82;1.50;;;15.40;99.90;;;;;;4972130;28;20106;-49
2022/09/17 09:45:15;;;;;;;6.38;1.60;;;15.40;99.90;;;;;;4959546;28;20050;-47
2022/09/17 09:47:46;;;;;;;4.07;0.80;;;15.30;99.90;;;;;;4955851;28;20731;-49
2022/09/17 09:50:32;;;;;;;4.05;1.08;;;15.20;99.90;;;;;;4975448;28;20053;-48
2022/09/17 09:53:29;;;;;;;5.65;1.45;;;15.20;99.90;;;;;;4969130;28;20509;-47
2022/09/17 09:56:27;;;;;;;8.73;1.67;;;15.20;99.90;;;;;;4939522;28;20094;-47
2022/09/17 09:58:52;;;;;;;9.40;1.83;;;15.10;99.90;;;;;;4942718;28;20086;-47
2022/09/17 10:01:19;;;;;;;10.88;2.80;;;15.20;99.90;;;;;;5029972;28;20140;-48
2022/09/17 10:03:46;;;;;;;13.93;2.20;;;14.90;99.90;;;;;;5033536;28;20182;-45
2022/09/17 10:06:16;;;;;;;14.57;2.47;;;14.60;99.90;;;;;;5039290;28;20053;-46
2022/09/17 10:08:54;;;;;;;8.32;1.90;;;13.80;99.90;;;;;;5043079;28;20084;-45
2022/09/17 10:11:25;;;;;;;7.95;1.80;;;13.30;99.90;;;;;;5032756;28;20047;-45
2022/09/17 10:13:51;;;;;;;7.57;1.75;;;13.10;99.90;;;;;;5026752;28;20102;-54
2022/09/17 10:16:23;;;;;;;11.32;2.38;;;12.90;99.90;;;;;;5040276;28;20040;-51
2022/09/17 10:19:17;;;;;;;12.47;2.47;;;12.80;99.90;;;;;;5037904;28;20122;-46
2022/09/17 10:21:43;;;;;;;8.18;3.47;;;12.90;99.90;;;;;;5025784;28;20311;-46
2022/09/17 10:24:25;;;;;;;7.70;2.08;;;13.10;99.90;;;;;;5042630;28;20060;-46
2022/09/17 10:26:59;;;;;;;9.85;1.75;;;13.30;99.90;;;;;;5040535;28;20057;-50
2022/09/17 10:29:25;;;;;;;8.65;1.67;;;13.50;99.90;;;;;;5025991;28;20487;-46
2022/09/17 10:31:53;;;;;;;6.93;1.75;;;13.70;99.90;;;;;;5019265;28;20547;-46
2022/09/17 10:34:30;;;;;;;7.63;1.55;;;13.90;99.90;;;;;;5043211;28;20088;-46
2022/09/17 10:36:57;;;;;;;8.40;2.05;;;14.30;99.90;;;;;;5042662;28;20049;-48
2022/09/17 10:39:28;;;;;;;8.35;2.28;;;14.30;99.90;;;;;;5016191;28;20467;-46
2022/09/17 10:41:56;;;;;;;7.32;1.50;;;14.10;99.90;;;;;;5031323;28;20048;-47
2022/09/17 10:44:25;;;;;;;6.78;2.22;;;13.60;99.90;;;;;;5042715;28;20041;-47
2022/09/17 10:46:52;;;;;;;4.70;1.20;;;13.30;99.90;;;;;;5040880;28;20044;-46
2022/09/17 10:49:33;;;;;;;6.63;1.50;;;13.10;99.90;;;;;;5016364;28;20530;-46
2022/09/17 10:52:09;;;;;;;7.13;1.23;;;13.30;99.90;;;;;;5035942;28;20492;-46
2022/09/17 10:55:06;;;;;;;9.02;1.30;;;13.30;99.90;;;;;;5047343;28;20072;-47
2022/09/17 10:58:02;;;;;;;4.13;0.90;;;13.30;99.90;;;;;;5036890;28;20060;-48
2022/09/17 11:00:58;;;;;;;4.53;1.20;;;13.10;99.90;;;;;;4977282;28;20094;-47
2022/09/17 11:03:58;;;;;;;5.10;1.23;;;13.30;99.90;;;;;;4972278;28;20058;-47
2022/09/17 11:06:26;;;;;;;4.72;0.90;;;13.20;99.90;;;;;;4973303;28;20433;-46
2022/09/17 11:09:13;;;;;;;9.23;1.45;;;13.10;99.90;;;;;;4972416;28;20046;-48
2022/09/17 11:12:06;;;;;;;6.97;1.65;;;13.20;99.90;;;;;;4953872;28;20066;-47
2022/09/17 11:14:47;;;;;;;3.80;0.80;;;13.30;99.90;;;;;;4980130;28;20058;-48
2022/09/17 11:17:49;;;;;;;8.85;1.50;;;13.60;99.90;;;;;;4978365;28;20043;-47
2022/09/17 11:20:49;;;;;;;4.60;1.98;;;13.80;99.90;;;;;;4971687;28;20125;-47
2022/09/17 11:23:35;;;;;;;7.20;1.60;;;13.80;99.90;;;;;;4932047;29;20542;-47
2022/09/17 11:26:04;;;;;;;8.57;1.95;;;13.70;99.90;;;;;;4940350;29;20498;-47
2022/09/17 11:28:35;;;;;;;9.23;1.77;;;13.70;99.90;;;;;;4941746;29;20061;-49
2022/09/17 11:31:27;;;;;;;9.20;2.13;;;13.80;99.90;;;;;;4932496;29;20825;-49
2022/09/17 11:34:08;;;;;;;8.30;1.73;;;14.10;99.90;;;;;;4941722;29;20106;-48
2022/09/17 11:36:52;;;;;;;9.88;1.77;;;14.20;99.90;;;;;;4947248;28;20050;-48
2022/09/17 11:39:33;;;;;;;8.55;2.13;;;14.20;99.90;;;;;;4961880;28;20399;-49
2022/09/17 11:42:06;;;;;;;6.40;1.52;;;14.00;99.90;;;;;;4975823;28;20057;-49
2022/09/17 11:44:44;;;;;;;12.40;1.98;;;13.70;99.90;;;;;;4979260;28;20046;-48
2022/09/17 11:47:23;;;;;;;8.70;1.80;;;13.40;99.90;;;;;;4967942;28;20089;-48
2022/09/17 11:50:18;;;;;;;8.07;1.52;;;13.50;99.90;;;;;;4959538;28;20054;-51
2022/09/17 11:53:12;;;;;;;7.13;1.60;;;13.50;99.90;;;;;;4957634;28;20045;-48
2022/09/17 11:55:51;;;;;;;6.82;1.60;;;13.70;99.90;;;;;;4909655;29;20172;-47
2022/09/17 11:58:29;;;;;;;11.02;2.10;;;14.00;99.90;;;;;;4921326;29;20246;-49
2022/09/17 12:01:36;;;;;;;9.38;1.73;;;14.20;99.90;;;;;;4943424;28;20723;-47
2022/09/17 12:04:31;;;;;;;9.70;2.08;;;14.30;99.90;;;;;;4939531;28;20710;-47
2022/09/17 12:07:20;;;;;;;11.85;2.38;;;14.50;99.90;;;;;;4940182;28;20066;-49
2022/09/17 12:09:52;;;;;;;10.23;2.13;;;14.60;99.90;;;;;;4952494;28;20059;-49
2022/09/17 12:12:22;;;;;;;10.73;3.15;;;14.70;99.90;;;;;;4941669;28;20130;-50
2022/09/17 12:15:20;;;;;;;13.38;2.38;;;14.80;99.90;;;;;;4952884;28;20065;-48
2022/09/17 12:17:55;;;;;;;18.60;4.00;;;14.90;99.90;;;;;;4926692;29;20098;-48
2022/09/17 12:20:29;;;;;;;11.23;2.42;;;15.00;99.90;;;;;;4914358;29;20178;-50
2022/09/17 12:23:00;;;;;;;14.95;2.97;;;15.00;99.90;;;;;;4938774;29;20583;-49
2022/09/17 12:25:42;;;;;;;16.88;3.42;;;15.00;99.90;;;;;;4928387;28;20594;-48
2022/09/17 12:28:22;;;;;;;15.15;3.85;;;15.10;99.90;;;;;;4932207;29;20052;-48
2022/09/17 12:30:57;;;;;;;19.30;3.42;;;15.10;99.90;;;;;;4921639;29;20066;-48
2022/09/17 12:33:28;;;;;;;14.10;2.67;;;15.20;99.90;;;;;;4963532;28;20509;-49
2022/09/17 12:36:12;;;;;;;13.35;2.45;;;15.40;99.90;;;;;;4977181;28;20058;-49
2022/09/17 12:39:15;;;;;;;16.35;3.28;;;15.70;99.90;;;;;;4979256;28;20049;-48
2022/09/17 12:42:06;;;;;;;13.32;2.65;;;15.90;99.90;;;;;;5000222;28;20054;-49
2022/09/17 12:44:50;;;;;;;12.60;2.97;;;16.10;99.90;;;;;;4990180;28;20057;-48
2022/09/17 12:47:40;;;;;;;13.18;2.63;;;16.20;99.90;;;;;;4997005;28;20997;-51
2022/09/17 12:50:27;;;;;;;13.77;2.72;;;16.20;99.90;;;;;;4999504;28;20923;-53
2022/09/17 12:53:19;;;;;;;14.50;2.47;;;16.30;99.90;;;;;;4992623;28;20093;-51
2022/09/17 12:56:10;;;;;;;13.60;3.20;;;16.10;99.90;;;;;;5014853;28;20064;-55
2022/09/17 12:58:44;;;;;;;10.55;1.92;;;16.00;99.90;;;;;;5038996;28;20049;-53
2022/09/17 13:01:33;;;;;;;7.97;2.10;;;15.60;99.90;;;;;;5029808;28;20053;-53
2022/09/17 13:04:15;;;;;;;8.20;1.92;;;15.40;99.90;;;;;;4941809;28;20527;-53
2022/09/17 13:07:12;;;;;;;5.53;1.45;;;15.10;99.90;;;;;;4917106;29;20118;-48
2022/09/17 13:10:02;;;;;;;11.32;2.03;;;14.70;99.90;;;;;;4945243;28;20622;-50
2022/09/17 13:12:39;;;;;;;8.90;2.30;;;14.70;99.90;;;;;;4927432;28;20178;-51